Columbiana, Alabama
Current Conditions -  °F | °C
As of 9:53 AM on Saturday 20 Dec 2014 (Local Time) from KEET Reporting Station
Overcast Overcast  
Wind Chill: 46°   Ceiling: 2400
Heat Index: 46°   Visibility: 9mi
Dew Point: 40°   Wind: 3mph
Humidity: 79%   Direction: 10°N
Pressure: 30.23"   Gusts: NA
Location:  33.18°N, 86.61°W
Report Text: KEET 201553Z AUTO 01003KT 9SM OVC024 08/04 A3023 RMK AO2 SLP236 T00780044
Loading
Personal Weather Stations






























Interactive Weather Map New forecast layout! Learn more

10-Day Weather Forecast

Advertisements
Track Severe Weather on mobile